sensor_id;sensor_type;location;lat;lon;timestamp;pressure;altitude;pressure_sealevel;temperature;humidity
20394;BME280;10356;50.544;9.642;2023-08-17T00:01:56;98455.69;;;18.68;100.00
20394;BME280;10356;50.544;9.642;2023-08-17T00:04:23;98445.47;;;18.73;100.00
20394;BME280;10356;50.544;9.642;2023-08-17T00:06:49;98443.47;;;18.75;100.00
20394;BME280;10356;50.544;9.642;2023-08-17T00:09:16;98456.00;;;18.81;100.00
20394;BME280;10356;50.544;9.642;2023-08-17T00:11:43;98450.72;;;18.81;100.00
20394;BME280;10356;50.544;9.642;2023-08-17T00:14:11;98483.09;;;18.83;100.00
20394;BME280;10356;50.544;9.642;2023-08-17T00:16:38;98481.44;;;18.90;100.00
20394;BME280;10356;50.544;9.642;2023-08-17T00:19:04;98463.44;;;18.86;100.00
20394;BME280;10356;50.544;9.642;2023-08-17T00:21:30;98463.94;;;18.89;100.00
20394;BME280;10356;50.544;9.642;2023-08-17T00:23:57;98447.44;;;18.87;100.00
20394;BME280;10356;50.544;9.642;2023-08-17T00:26:24;98449.59;;;18.84;100.00
20394;BME280;10356;50.544;9.642;2023-08-17T00:28:51;98461.66;;;18.86;100.00
20394;BME280;10356;50.544;9.642;2023-08-17T00:31:18;98468.72;;;18.86;100.00
20394;BME280;10356;50.544;9.642;2023-08-17T00:33:45;98468.06;;;18.84;100.00
20394;BME280;10356;50.544;9.642;2023-08-17T00:36:11;98467.91;;;18.85;100.00
20394;BME280;10356;50.544;9.642;2023-08-17T00:38:38;98473.19;;;18.85;100.00
20394;BME280;10356;50.544;9.642;2023-08-17T00:41:04;98468.72;;;18.86;100.00
20394;BME280;10356;50.544;9.642;2023-08-17T00:43:31;98462.31;;;18.88;100.00
20394;BME280;10356;50.544;9.642;2023-08-17T00:45:57;98455.03;;;18.90;100.00
20394;BME280;10356;50.544;9.642;2023-08-17T00:48:26;98462.31;;;18.88;100.00
20394;BME280;10356;50.544;9.642;2023-08-17T00:50:54;98447.44;;;18.87;100.00
20394;BME280;10356;50.544;9.642;2023-08-17T00:53:22;98448.09;;;18.89;100.00
20394;BME280;10356;50.544;9.642;2023-08-17T00:55:50;98438.53;;;18.88;100.00
20394;BME280;10356;50.544;9.642;2023-08-17T00:58:17;98442.81;;;18.89;100.00
20394;BME280;10356;50.544;9.642;2023-08-17T01:00:43;98440.66;;;18.85;100.00
20394;BME280;10356;50.544;9.642;2023-08-17T01:03:10;98437.03;;;18.86;100.00
20394;BME280;10356;50.544;9.642;2023-08-17T01:05:38;98448.59;;;18.85;100.00
20394;BME280;10356;50.544;9.642;2023-08-17T01:08:05;98436.88;;;18.79;100.00
20394;BME280;10356;50.544;9.642;2023-08-17T01:10:39;98432.59;;;18.78;100.00
20394;BME280;10356;50.544;9.642;2023-08-17T01:13:10;98442.34;;;18.70;100.00
20394;BME280;10356;50.544;9.642;2023-08-17T01:15:42;98422.53;;;18.66;100.00
20394;BME280;10356;50.544;9.642;2023-08-17T01:18:15;98423.84;;;18.62;100.00
20394;BME280;10356;50.544;9.642;2023-08-17T01:20:45;98418.09;;;18.58;100.00
20394;BME280;10356;50.544;9.642;2023-08-17T01:23:13;98411.47;;;18.54;100.00
20394;BME280;10356;50.544;9.642;2023-08-17T01:25:40;98408.00;;;18.46;100.00
20394;BME280;10356;50.544;9.642;2023-08-17T01:28:07;98397.25;;;18.39;100.00
20394;BME280;10356;50.544;9.642;2023-08-17T01:30:38;98395.94;;;18.35;100.00
20394;BME280;10356;50.544;9.642;2023-08-17T01:33:07;98398.91;;;18.32;100.00
20394;BME280;10356;50.544;9.642;2023-08-17T01:35:39;98394.59;;;18.31;100.00
20394;BME280;10356;50.544;9.642;2023-08-17T01:38:09;98396.59;;;18.29;100.00
20394;BME280;10356;50.544;9.642;2023-08-17T01:40:41;98398.25;;;18.30;100.00
20394;BME280;10356;50.544;9.642;2023-08-17T01:43:09;98403.84;;;18.27;100.00
20394;BME280;10356;50.544;9.642;2023-08-17T01:45:36;98405.31;;;18.29;100.00
20394;BME280;10356;50.544;9.642;2023-08-17T01:48:04;98404.84;;;18.26;100.00
20394;BME280;10356;50.544;9.642;2023-08-17T01:50:30;98398.06;;;18.23;100.00
20394;BME280;10356;50.544;9.642;2023-08-17T01:52:57;98390.63;;;18.19;100.00
20394;BME280;10356;50.544;9.642;2023-08-17T01:55:23;98388.00;;;18.19;100.00
20394;BME280;10356;50.544;9.642;2023-08-17T01:57:51;98382.72;;;18.11;100.00
20394;BME280;10356;50.544;9.642;2023-08-17T02:00:17;98375.13;;;18.08;100.00
20394;BME280;10356;50.544;9.642;2023-08-17T02:02:44;98378.91;;;18.05;100.00
20394;BME280;10356;50.544;9.642;2023-08-17T02:05:11;98383.34;;;18.05;100.00
20394;BME280;10356;50.544;9.642;2023-08-17T02:07:38;98385.34;;;18.03;100.00
20394;BME280;10356;50.544;9.642;2023-08-17T02:10:05;98382.03;;;18.01;100.00
20394;BME280;10356;50.544;9.642;2023-08-17T02:12:32;98381.38;;;17.99;100.00
20394;BME280;10356;50.544;9.642;2023-08-17T02:14:59;98382.19;;;17.99;100.00
20394;BME280;10356;50.544;9.642;2023-08-17T02:17:26;98378.72;;;17.99;100.00
20394;BME280;10356;50.544;9.642;2023-08-17T02:19:52;98382.34;;;17.98;100.00
20394;BME280;10356;50.544;9.642;2023-08-17T02:22:19;98391.44;;;17.95;100.00
20394;BME280;10356;50.544;9.642;2023-08-17T02:24:45;98389.94;;;17.93;100.00
20394;BME280;10356;50.544;9.642;2023-08-17T02:27:12;98382.97;;;17.92;100.00
20394;BME280;10356;50.544;9.642;2023-08-17T02:29:39;98383.63;;;17.86;100.00
20394;BME280;10356;50.544;9.642;2023-08-17T02:32:06;98392.72;;;17.83;100.00
20394;BME280;10356;50.544;9.642;2023-08-17T02:34:33;98388.41;;;17.82;100.00
20394;BME280;10356;50.544;9.642;2023-08-17T02:36:59;98390.38;;;17.80;100.00
20394;BME280;10356;50.544;9.642;2023-08-17T02:39:26;98386.25;;;17.78;100.00
20394;BME280;10356;50.544;9.642;2023-08-17T02:41:52;98383.59;;;17.78;100.00
20394;BME280;10356;50.544;9.642;2023-08-17T02:44:20;98388.22;;;17.76;100.00
20394;BME280;10356;50.544;9.642;2023-08-17T02:46:46;98383.28;;;17.73;100.00
20394;BME280;10356;50.544;9.642;2023-08-17T02:49:14;98381.31;;;17.75;100.00
20394;BME280;10356;50.544;9.642;2023-08-17T02:51:40;98380.94;;;17.70;100.00
20394;BME280;10356;50.544;9.642;2023-08-17T02:54:07;98380.28;;;17.68;100.00
20394;BME280;10356;50.544;9.642;2023-08-17T02:56:33;98381.13;;;17.68;100.00
20394;BME280;10356;50.544;9.642;2023-08-17T02:59:00;98376.69;;;17.69;100.00
20394;BME280;10356;50.544;9.642;2023-08-17T03:01:26;98389.50;;;17.63;100.00
20394;BME280;10356;50.544;9.642;2023-08-17T03:03:54;98392.81;;;17.66;100.00
20394;BME280;10356;50.544;9.642;2023-08-17T03:06:22;98385.91;;;17.65;100.00
20394;BME280;10356;50.544;9.642;2023-08-17T03:08:48;98379.47;;;17.67;100.00
20394;BME280;10356;50.544;9.642;2023-08-17T03:11:15;98375.34;;;17.65;100.00
20394;BME280;10356;50.544;9.642;2023-08-17T03:13:41;98369.75;;;17.68;100.00
20394;BME280;10356;50.544;9.642;2023-08-17T03:16:07;98367.25;;;17.58;100.00
20394;BME280;10356;50.544;9.642;2023-08-17T03:18:34;98368.25;;;17.57;100.00
20394;BME280;10356;50.544;9.642;2023-08-17T03:21:00;98375.31;;;17.56;100.00
20394;BME280;10356;50.544;9.642;2023-08-17T03:23:28;98372.34;;;17.59;100.00
20394;BME280;10356;50.544;9.642;2023-08-17T03:25:55;98373.69;;;17.63;100.00
20394;BME280;10356;50.544;9.642;2023-08-17T03:28:21;98369.06;;;17.57;100.00
20394;BME280;10356;50.544;9.642;2023-08-17T03:30:47;98377.97;;;17.56;100.00
20394;BME280;10356;50.544;9.642;2023-08-17T03:33:14;98380.22;;;17.51;100.00
20394;BME280;10356;50.544;9.642;2023-08-17T03:35:40;98382.19;;;17.49;100.00
20394;BME280;10356;50.544;9.642;2023-08-17T03:38:07;98389.69;;;17.36;100.00
20394;BME280;10356;50.544;9.642;2023-08-17T03:40:35;98387.38;;;17.33;100.00
20394;BME280;10356;50.544;9.642;2023-08-17T03:43:01;98391.66;;;17.34;100.00
20394;BME280;10356;50.544;9.642;2023-08-17T03:45:28;98390.03;;;17.41;100.00
20394;BME280;10356;50.544;9.642;2023-08-17T03:47:55;98390.03;;;17.41;100.00
20394;BME280;10356;50.544;9.642;2023-08-17T03:50:21;98396.97;;;17.42;100.00
20394;BME280;10356;50.544;9.642;2023-08-17T03:52:48;98397.31;;;17.47;100.00
20394;BME280;10356;50.544;9.642;2023-08-17T03:55:14;98400.78;;;17.48;100.00
20394;BME280;10356;50.544;9.642;2023-08-17T03:57:42;98396.41;;;17.56;100.00
20394;BME280;10356;50.544;9.642;2023-08-17T04:00:09;98404.31;;;17.56;100.00
20394;BME280;10356;50.544;9.642;2023-08-17T04:02:36;98407.59;;;17.58;100.00
20394;BME280;10356;50.544;9.642;2023-08-17T04:05:04;98410.25;;;17.58;100.00
20394;BME280;10356;50.544;9.642;2023-08-17T04:07:30;98417.66;;;17.55;100.00
20394;BME280;10356;50.544;9.642;2023-08-17T04:09:57;98419.28;;;17.56;100.00
20394;BME280;10356;50.544;9.642;2023-08-17T04:12:23;98423.09;;;17.61;100.00
20394;BME280;10356;50.544;9.642;2023-08-17T04:14:51;98433.63;;;17.61;100.00
20394;BME280;10356;50.544;9.642;2023-08-17T04:17:17;98428.34;;;17.61;100.00
20394;BME280;10356;50.544;9.642;2023-08-17T04:19:46;98431.63;;;17.55;100.00
20394;BME280;10356;50.544;9.642;2023-08-17T04:22:12;98433.75;;;17.52;100.00
20394;BME280;10356;50.544;9.642;2023-08-17T04:24:39;98432.25;;;17.49;100.00
20394;BME280;10356;50.544;9.642;2023-08-17T04:27:05;98427.34;;;17.54;100.00
20394;BME280;10356;50.544;9.642;2023-08-17T04:29:31;98430.66;;;17.56;100.00
20394;BME280;10356;50.544;9.642;2023-08-17T04:31:59;98437.25;;;17.60;100.00
20394;BME280;10356;50.544;9.642;2023-08-17T04:34:26;98444.50;;;17.58;100.00
20394;BME280;10356;50.544;9.642;2023-08-17T04:36:52;98441.00;;;17.50;100.00
20394;BME280;10356;50.544;9.642;2023-08-17T04:39:19;98440.84;;;17.51;100.00
20394;BME280;10356;50.544;9.642;2023-08-17T04:41:45;98446.78;;;17.53;100.00
20394;BME280;10356;50.544;9.642;2023-08-17T04:44:12;98437.72;;;17.56;100.00
20394;BME280;10356;50.544;9.642;2023-08-17T04:46:38;98439.53;;;17.55;100.00
20394;BME280;10356;50.544;9.642;2023-08-17T04:49:06;98442.03;;;17.57;100.00
20394;BME280;10356;50.544;9.642;2023-08-17T04:51:32;98438.91;;;17.61;100.00
20394;BME280;10356;50.544;9.642;2023-08-17T04:53:59;98444.06;;;17.71;100.00
20394;BME280;10356;50.544;9.642;2023-08-17T04:56:25;98448.72;;;17.77;100.00
20394;BME280;10356;50.544;9.642;2023-08-17T04:58:53;98442.81;;;17.83;100.00
20394;BME280;10356;50.544;9.642;2023-08-17T05:01:19;98444.94;;;17.88;100.00
20394;BME280;10356;50.544;9.642;2023-08-17T05:03:46;98454.97;;;17.84;100.00
20394;BME280;10356;50.544;9.642;2023-08-17T05:06:14;98452.19;;;17.86;100.00
20394;BME280;10356;50.544;9.642;2023-08-17T05:08:40;98453.81;;;17.79;100.00
20394;BME280;10356;50.544;9.642;2023-08-17T05:11:06;98451.22;;;17.87;100.00
20394;BME280;10356;50.544;9.642;2023-08-17T05:13:34;98458.47;;;17.93;100.00
20394;BME280;10356;50.544;9.642;2023-08-17T05:16:00;98450.91;;;17.98;100.00
20394;BME280;10356;50.544;9.642;2023-08-17T05:18:27;98456.22;;;18.06;100.00
20394;BME280;10356;50.544;9.642;2023-08-17T05:20:53;98462.94;;;18.00;100.00
20394;BME280;10356;50.544;9.642;2023-08-17T05:23:21;98467.09;;;18.03;100.00
20394;BME280;10356;50.544;9.642;2023-08-17T05:25:48;98452.56;;;17.99;100.00
20394;BME280;10356;50.544;9.642;2023-08-17T05:28:14;98460.13;;;17.94;100.00
20394;BME280;10356;50.544;9.642;2023-08-17T05:30:40;98458.16;;;17.96;100.00
20394;BME280;10356;50.544;9.642;2023-08-17T05:33:07;98458.69;;;17.99;100.00
20394;BME280;10356;50.544;9.642;2023-08-17T05:35:33;98460.19;;;18.10;100.00
20394;BME280;10356;50.544;9.642;2023-08-17T05:38:00;98461.84;;;18.11;100.00
20394;BME280;10356;50.544;9.642;2023-08-17T05:40:29;98464.19;;;18.22;100.00
20394;BME280;10356;50.544;9.642;2023-08-17T05:42:55;98469.13;;;18.25;100.00
20394;BME280;10356;50.544;9.642;2023-08-17T05:45:22;98462.56;;;18.37;100.00
20394;BME280;10356;50.544;9.642;2023-08-17T05:47:48;98463.22;;;18.39;100.00
20394;BME280;10356;50.544;9.642;2023-08-17T05:50:15;98464.41;;;18.44;100.00
20394;BME280;10356;50.544;9.642;2023-08-17T05:52:41;98467.22;;;18.51;100.00
20394;BME280;10356;50.544;9.642;2023-08-17T05:55:08;98468.88;;;18.44;100.00
20394;BME280;10356;50.544;9.642;2023-08-17T05:57:36;98461.72;;;18.36;100.00
20394;BME280;10356;50.544;9.642;2023-08-17T06:00:03;98470.81;;;18.42;100.00
20394;BME280;10356;50.544;9.642;2023-08-17T06:02:30;98467.22;;;18.43;100.00
20394;BME280;10356;50.544;9.642;2023-08-17T06:04:56;98467.09;;;18.11;100.00
20394;BME280;10356;50.544;9.642;2023-08-17T06:07:23;98471.94;;;18.23;100.00
20394;BME280;10356;50.544;9.642;2023-08-17T06:09:50;98476.88;;;18.34;100.00
20394;BME280;10356;50.544;9.642;2023-08-17T06:12:16;98475.34;;;18.08;100.00
20394;BME280;10356;50.544;9.642;2023-08-17T06:14:45;98473.59;;;17.83;100.00
20394;BME280;10356;50.544;9.642;2023-08-17T06:17:11;98478.22;;;17.81;100.00
20394;BME280;10356;50.544;9.642;2023-08-17T06:19:38;98487.81;;;17.98;100.00
20394;BME280;10356;50.544;9.642;2023-08-17T06:22:05;98492.16;;;18.07;100.00
20394;BME280;10356;50.544;9.642;2023-08-17T06:24:31;98492.16;;;18.07;100.00
20394;BME280;10356;50.544;9.642;2023-08-17T06:26:58;98493.19;;;18.22;100.00
20394;BME280;10356;50.544;9.642;2023-08-17T06:29:25;98499.94;;;18.24;100.00
20394;BME280;10356;50.544;9.642;2023-08-17T06:31:53;98495.53;;;18.33;100.00
20394;BME280;10356;50.544;9.642;2023-08-17T06:34:20;98495.22;;;18.36;100.00
20394;BME280;10356;50.544;9.642;2023-08-17T06:36:56;98491.94;;;18.42;100.00
20394;BME280;10356;50.544;9.642;2023-08-17T06:39:23;98492.47;;;18.46;100.00
20394;BME280;10356;50.544;9.642;2023-08-17T06:41:50;98498.88;;;18.43;100.00
20394;BME280;10356;50.544;9.642;2023-08-17T06:44:16;98500.41;;;18.62;100.00
20394;BME280;10356;50.544;9.642;2023-08-17T06:46:43;98492.16;;;18.81;100.00
20394;BME280;10356;50.544;9.642;2023-08-17T06:49:11;98490.34;;;18.73;100.00
20394;BME280;10356;50.544;9.642;2023-08-17T06:51:37;98493.81;;;18.82;100.00
20394;BME280;10356;50.544;9.642;2023-08-17T06:54:04;98496.28;;;18.99;100.00
20394;BME280;10356;50.544;9.642;2023-08-17T06:56:31;98491.81;;;18.68;100.00
20394;BME280;10356;50.544;9.642;2023-08-17T06:58:57;98491.81;;;18.68;100.00
20394;BME280;10356;50.544;9.642;2023-08-17T07:01:24;98484.75;;;18.92;100.00
20394;BME280;10356;50.544;9.642;2023-08-17T07:03:51;98487.03;;;19.03;100.00
20394;BME280;10356;50.544;9.642;2023-08-17T07:06:19;98483.41;;;19.04;100.00
20394;BME280;10356;50.544;9.642;2023-08-17T07:08:45;98488.34;;;19.07;100.00
20394;BME280;10356;50.544;9.642;2023-08-17T07:11:12;98491.84;;;18.84;100.00
20394;BME280;10356;50.544;9.642;2023-08-17T07:13:39;98484.06;;;19.14;100.00
20394;BME280;10356;50.544;9.642;2023-08-17T07:16:06;98487.19;;;19.26;100.00
20394;BME280;10356;50.544;9.642;2023-08-17T07:18:32;98484.38;;;19.44;100.00
20394;BME280;10356;50.544;9.642;2023-08-17T07:20:59;98491.25;;;19.69;100.00
20394;BME280;10356;50.544;9.642;2023-08-17T07:23:26;98496.78;;;19.90;100.00
20394;BME280;10356;50.544;9.642;2023-08-17T07:25:53;98496.28;;;19.94;100.00
20394;BME280;10356;50.544;9.642;2023-08-17T07:28:19;98502.44;;;19.87;100.00
20394;BME280;10356;50.544;9.642;2023-08-17T07:30:46;98505.38;;;19.92;100.00
20394;BME280;10356;50.544;9.642;2023-08-17T07:33:12;98500.09;;;19.92;100.00
20394;BME280;10356;50.544;9.642;2023-08-17T07:35:39;98490.31;;;20.00;100.00
20394;BME280;10356;50.544;9.642;2023-08-17T07:38:05;98500.63;;;20.18;100.00
20394;BME280;10356;50.544;9.642;2023-08-17T07:40:33;98499.66;;;20.27;100.00
20394;BME280;10356;50.544;9.642;2023-08-17T07:43:00;98499.88;;;20.40;100.00
20394;BME280;10356;50.544;9.642;2023-08-17T07:45:26;98504.84;;;20.43;100.00
20394;BME280;10356;50.544;9.642;2023-08-17T07:47:53;98503.22;;;20.65;100.00
20394;BME280;10356;50.544;9.642;2023-08-17T07:50:20;98500.22;;;20.68;100.00
20394;BME280;10356;50.544;9.642;2023-08-17T07:52:46;98505.41;;;20.61;100.00
20394;BME280;10356;50.544;9.642;2023-08-17T07:55:13;98497.56;;;20.68;100.00
20394;BME280;10356;50.544;9.642;2023-08-17T07:57:40;98496.63;;;20.83;100.00
20394;BME280;10356;50.544;9.642;2023-08-17T08:00:07;98495.91;;;20.89;97.50
20394;BME280;10356;50.544;9.642;2023-08-17T08:02:34;98501.69;;;21.16;100.00
20394;BME280;10356;50.544;9.642;2023-08-17T08:05:01;98502.63;;;21.23;98.65
20394;BME280;10356;50.544;9.642;2023-08-17T08:07:27;98500.75;;;21.46;97.01
20394;BME280;10356;50.544;9.642;2023-08-17T08:09:54;98501.38;;;21.48;97.21
20394;BME280;10356;50.544;9.642;2023-08-17T08:12:20;98496.47;;;21.74;98.19
20394;BME280;10356;50.544;9.642;2023-08-17T08:14:48;98503.47;;;21.90;97.64
20394;BME280;10356;50.544;9.642;2023-08-17T08:17:16;98507.38;;;21.79;95.15
20394;BME280;10356;50.544;9.642;2023-08-17T08:19:44;98504.34;;;21.82;94.87
20394;BME280;10356;50.544;9.642;2023-08-17T08:22:10;98506.72;;;21.77;95.39
20394;BME280;10356;50.544;9.642;2023-08-17T08:24:37;98504.16;;;21.69;94.00
20394;BME280;10356;50.544;9.642;2023-08-17T08:27:06;98500.31;;;21.57;92.16
20394;BME280;10356;50.544;9.642;2023-08-17T08:29:33;98501.75;;;21.74;92.92
20394;BME280;10356;50.544;9.642;2023-08-17T08:32:01;98507.66;;;21.84;93.71
20394;BME280;10356;50.544;9.642;2023-08-17T08:34:28;98502.72;;;21.81;93.46
20394;BME280;10356;50.544;9.642;2023-08-17T08:36:55;98506.34;;;21.80;89.83
20394;BME280;10356;50.544;9.642;2023-08-17T08:39:21;98497.59;;;21.94;90.99
20394;BME280;10356;50.544;9.642;2023-08-17T08:41:47;98489.41;;;22.25;91.61
20394;BME280;10356;50.544;9.642;2023-08-17T08:44:14;98500.22;;;22.44;89.98
20394;BME280;10356;50.544;9.642;2023-08-17T08:46:44;98502.78;;;22.52;88.79
20394;BME280;10356;50.544;9.642;2023-08-17T08:49:12;98494.16;;;22.50;88.17
20394;BME280;10356;50.544;9.642;2023-08-17T08:51:44;98505.19;;;22.47;87.96
20394;BME280;10356;50.544;9.642;2023-08-17T08:54:14;98492.56;;;22.35;91.01
20394;BME280;10356;50.544;9.642;2023-08-17T08:56:45;98500.00;;;22.39;87.60
20394;BME280;10356;50.544;9.642;2023-08-17T08:59:12;98498.16;;;22.40;88.84
20394;BME280;10356;50.544;9.642;2023-08-17T09:01:39;98508.56;;;22.56;87.60
20394;BME280;10356;50.544;9.642;2023-08-17T09:04:06;98495.84;;;22.51;88.49
20394;BME280;10356;50.544;9.642;2023-08-17T09:06:34;98497.09;;;22.55;88.02
20394;BME280;10356;50.544;9.642;2023-08-17T09:09:02;98495.63;;;22.32;89.59
20394;BME280;10356;50.544;9.642;2023-08-17T09:11:28;98498.78;;;22.78;89.00
20394;BME280;10356;50.544;9.642;2023-08-17T09:13:55;98498.97;;;22.97;86.63
20394;BME280;10356;50.544;9.642;2023-08-17T09:16:21;98492.94;;;22.89;88.27
20394;BME280;10356;50.544;9.642;2023-08-17T09:18:48;98502.44;;;22.77;87.29
20394;BME280;10356;50.544;9.642;2023-08-17T09:21:22;98496.88;;;22.72;87.71
20394;BME280;10356;50.544;9.642;2023-08-17T09:23:54;98499.66;;;22.64;89.22
20394;BME280;10356;50.544;9.642;2023-08-17T09:26:21;98510.31;;;23.06;87.74
20394;BME280;10356;50.544;9.642;2023-08-17T09:28:48;98500.13;;;22.88;86.41
20394;BME280;10356;50.544;9.642;2023-08-17T09:31:15;98507.94;;;23.17;88.87
20394;BME280;10356;50.544;9.642;2023-08-17T09:33:41;98507.53;;;22.72;86.28
20394;BME280;10356;50.544;9.642;2023-08-17T09:36:10;98498.91;;;23.12;85.34
20394;BME280;10356;50.544;9.642;2023-08-17T09:38:38;98496.16;;;23.26;84.93
20394;BME280;10356;50.544;9.642;2023-08-17T09:41:06;98498.75;;;23.41;88.14
20394;BME280;10356;50.544;9.642;2023-08-17T09:43:32;98499.75;;;23.68;83.85
20394;BME280;10356;50.544;9.642;2023-08-17T09:46:00;98490.84;;;23.88;84.42
20394;BME280;10356;50.544;9.642;2023-08-17T09:48:27;98499.78;;;23.74;85.26
20394;BME280;10356;50.544;9.642;2023-08-17T09:50:56;98497.25;;;24.00;81.53
20394;BME280;10356;50.544;9.642;2023-08-17T09:53:23;98494.25;;;24.03;83.18
20394;BME280;10356;50.544;9.642;2023-08-17T09:55:50;98491.09;;;24.41;81.88
20394;BME280;10356;50.544;9.642;2023-08-17T09:58:18;98491.72;;;23.95;82.02
20394;BME280;10356;50.544;9.642;2023-08-17T10:00:46;98490.28;;;24.34;79.10
20394;BME280;10356;50.544;9.642;2023-08-17T10:03:14;98493.22;;;24.65;79.26
20394;BME280;10356;50.544;9.642;2023-08-17T10:05:43;98489.22;;;24.88;76.42
20394;BME280;10356;50.544;9.642;2023-08-17T10:08:11;98487.34;;;24.82;77.33
20394;BME280;10356;50.544;9.642;2023-08-17T10:10:40;98483.88;;;25.02;76.64
20394;BME280;10356;50.544;9.642;2023-08-17T10:13:09;98481.00;;;25.10;78.02
20394;BME280;10356;50.544;9.642;2023-08-17T10:15:43;98480.56;;;24.73;78.89
20394;BME280;10356;50.544;9.642;2023-08-17T10:18:16;98484.25;;;24.79;79.39
20394;BME280;10356;50.544;9.642;2023-08-17T10:20:52;98484.09;;;25.00;79.11
20394;BME280;10356;50.544;9.642;2023-08-17T10:23:22;98481.84;;;25.10;77.67
20394;BME280;10356;50.544;9.642;2023-08-17T10:25:50;98481.63;;;24.92;75.64
20394;BME280;10356;50.544;9.642;2023-08-17T10:28:18;98486.94;;;24.92;78.02
20394;BME280;10356;50.544;9.642;2023-08-17T10:30:46;98489.41;;;24.27;81.48
20394;BME280;10356;50.544;9.642;2023-08-17T10:33:14;98482.22;;;24.74;81.05
20394;BME280;10356;50.544;9.642;2023-08-17T10:35:41;98484.78;;;24.55;81.67
20394;BME280;10356;50.544;9.642;2023-08-17T10:38:08;98478.72;;;24.20;82.32
20394;BME280;10356;50.544;9.642;2023-08-17T10:40:36;98484.97;;;24.47;80.49
20394;BME280;10356;50.544;9.642;2023-08-17T10:43:03;98483.28;;;24.33;82.72
20394;BME280;10356;50.544;9.642;2023-08-17T10:45:31;98480.78;;;24.91;81.75
20394;BME280;10356;50.544;9.642;2023-08-17T10:48:24;98487.56;;;24.94;78.70
20394;BME280;10356;50.544;9.642;2023-08-17T10:51:00;98473.81;;;24.84;79.11
20394;BME280;10356;50.544;9.642;2023-08-17T10:53:27;98489.91;;;24.43;79.94
20394;BME280;10356;50.544;9.642;2023-08-17T10:55:57;98480.16;;;24.83;80.20
20394;BME280;10356;50.544;9.642;2023-08-17T10:58:24;98476.47;;;24.97;79.22
20394;BME280;10356;50.544;9.642;2023-08-17T11:00:54;98487.56;;;25.07;77.14
20394;BME280;10356;50.544;9.642;2023-08-17T11:03:22;98489.81;;;25.36;75.27
20394;BME280;10356;50.544;9.642;2023-08-17T11:05:50;98488.00;;;25.37;75.94
20394;BME280;10356;50.544;9.642;2023-08-17T11:08:22;98484.88;;;25.33;77.01
20394;BME280;10356;50.544;9.642;2023-08-17T11:10:58;98476.97;;;26.04;74.15
20394;BME280;10356;50.544;9.642;2023-08-17T11:13:27;98483.41;;;25.90;73.76
20394;BME280;10356;50.544;9.642;2023-08-17T11:15:54;98481.56;;;25.84;72.37
20394;BME280;10356;50.544;9.642;2023-08-17T11:18:23;98476.00;;;25.92;73.72
20394;BME280;10356;50.544;9.642;2023-08-17T11:20:49;98476.31;;;26.28;74.85
20394;BME280;10356;50.544;9.642;2023-08-17T11:23:17;98471.31;;;26.38;72.50
20394;BME280;10356;50.544;9.642;2023-08-17T11:25:44;98476.41;;;25.82;75.51
20394;BME280;10356;50.544;9.642;2023-08-17T11:28:11;98477.31;;;25.56;76.91
20394;BME280;10356;50.544;9.642;2023-08-17T11:30:39;98480.59;;;25.32;76.41
20394;BME280;10356;50.544;9.642;2023-08-17T11:33:07;98474.03;;;25.09;77.06
20394;BME280;10356;50.544;9.642;2023-08-17T11:35:36;98476.69;;;25.48;75.75
20394;BME280;10356;50.544;9.642;2023-08-17T11:38:03;98481.38;;;25.65;75.79
20394;BME280;10356;50.544;9.642;2023-08-17T11:40:31;98481.75;;;25.82;75.51
20394;BME280;10356;50.544;9.642;2023-08-17T11:42:57;98478.00;;;26.03;72.34
20394;BME280;10356;50.544;9.642;2023-08-17T11:45:24;98477.06;;;26.35;70.57
20394;BME280;10356;50.544;9.642;2023-08-17T11:47:51;98470.00;;;26.85;69.84
20394;BME280;10356;50.544;9.642;2023-08-17T11:50:18;98463.88;;;27.33;69.47
20394;BME280;10356;50.544;9.642;2023-08-17T11:52:45;98470.09;;;27.52;66.26
20394;BME280;10356;50.544;9.642;2023-08-17T11:55:16;98465.28;;;28.15;64.07
20394;BME280;10356;50.544;9.642;2023-08-17T11:57:44;98470.72;;;28.08;64.46
20394;BME280;10356;50.544;9.642;2023-08-17T12:00:17;98466.53;;;27.76;63.16
20394;BME280;10356;50.544;9.642;2023-08-17T12:02:46;98456.47;;;28.26;63.66
20394;BME280;10356;50.544;9.642;2023-08-17T12:05:23;98468.44;;;27.26;67.16
20394;BME280;10356;50.544;9.642;2023-08-17T12:07:53;98468.25;;;27.71;64.84
20394;BME280;10356;50.544;9.642;2023-08-17T12:10:20;98463.56;;;27.84;66.30
20394;BME280;10356;50.544;9.642;2023-08-17T12:12:48;98455.88;;;28.24;63.25
20394;BME280;10356;50.544;9.642;2023-08-17T12:15:16;98456.47;;;28.26;64.23
20394;BME280;10356;50.544;9.642;2023-08-17T12:17:44;98450.94;;;28.39;62.15
20394;BME280;10356;50.544;9.642;2023-08-17T12:20:16;98452.72;;;28.15;64.60
20394;BME280;10356;50.544;9.642;2023-08-17T12:22:42;98452.78;;;27.91;63.13
20394;BME280;10356;50.544;9.642;2023-08-17T12:25:10;98450.94;;;28.39;63.25
20394;BME280;10356;50.544;9.642;2023-08-17T12:27:37;98454.66;;;28.97;60.30
20394;BME280;10356;50.544;9.642;2023-08-17T12:30:05;98444.09;;;28.43;62.11
20394;BME280;10356;50.544;9.642;2023-08-17T12:32:37;98440.31;;;29.03;60.85
20394;BME280;10356;50.544;9.642;2023-08-17T12:35:04;98438.72;;;29.37;59.45
20394;BME280;10356;50.544;9.642;2023-08-17T12:37:31;98429.28;;;29.35;60.49
20394;BME280;10356;50.544;9.642;2023-08-17T12:39:57;98438.00;;;29.53;59.95
20394;BME280;10356;50.544;9.642;2023-08-17T12:42:25;98435.03;;;28.26;62.84
20394;BME280;10356;50.544;9.642;2023-08-17T12:44:52;98428.22;;;28.71;63.83
20394;BME280;10356;50.544;9.642;2023-08-17T12:47:18;98434.31;;;28.78;62.25
20394;BME280;10356;50.544;9.642;2023-08-17T12:49:45;98434.75;;;28.34;62.63
20394;BME280;10356;50.544;9.642;2023-08-17T12:52:11;98434.09;;;28.02;64.12
20394;BME280;10356;50.544;9.642;2023-08-17T12:54:38;98432.06;;;28.34;63.36